createdAt,value
2022-09-29T00:02:22.230Z,100240
2022-09-29T00:07:22.231Z,100230
2022-09-29T00:12:22.231Z,100240
2022-09-29T00:17:22.285Z,100250
2022-09-29T00:22:22.239Z,100250
2022-09-29T00:27:22.241Z,100250
2022-09-29T00:32:22.241Z,100240
2022-09-29T00:37:22.248Z,100240
2022-09-29T00:42:22.250Z,100240
2022-09-29T00:47:22.372Z,100240
2022-09-29T00:52:22.269Z,100240
2022-09-29T00:57:22.259Z,100230
2022-09-29T01:02:22.317Z,100230
2022-09-29T01:07:22.269Z,100230
2022-09-29T01:12:22.268Z,100230
2022-09-29T01:17:22.398Z,100230
2022-09-29T01:22:22.272Z,100220
2022-09-29T01:27:22.274Z,100230
2022-09-29T01:32:22.282Z,100220
2022-09-29T01:37:22.280Z,100230
2022-09-29T01:42:22.282Z,100240
2022-09-29T01:47:22.420Z,100240
2022-09-29T01:52:22.290Z,100240
2022-09-29T01:57:22.291Z,100240
2022-09-29T02:02:22.355Z,100240
2022-09-29T02:07:22.305Z,100240
2022-09-29T02:12:22.300Z,100240
2022-09-29T02:17:22.344Z,100240
2022-09-29T02:22:22.303Z,100240
2022-09-29T02:27:22.312Z,100250
2022-09-29T02:32:22.311Z,100240
2022-09-29T02:37:22.311Z,100250
2022-09-29T02:42:22.319Z,100250
2022-09-29T02:47:22.512Z,100240
2022-09-29T02:52:22.318Z,100240
2022-09-29T02:57:22.324Z,100250
2022-09-29T03:02:22.328Z,100240
2022-09-29T03:07:22.329Z,100250
2022-09-29T03:12:22.393Z,100250
2022-09-29T03:17:22.464Z,100250
2022-09-29T03:22:22.341Z,100260
2022-09-29T03:27:22.339Z,100250
2022-09-29T03:32:22.342Z,100250
2022-09-29T03:37:22.346Z,100250
2022-09-29T03:42:22.349Z,100250
2022-09-29T03:47:22.592Z,100260
2022-09-29T03:52:22.351Z,100260
2022-09-29T03:57:22.364Z,100250
2022-09-29T04:02:22.413Z,100250
2022-09-29T04:07:22.361Z,100250
2022-09-29T04:12:22.371Z,100260
2022-09-29T04:17:22.507Z,100260
2022-09-29T04:22:22.369Z,100270
2022-09-29T04:27:22.391Z,100280
2022-09-29T04:32:22.375Z,100280
2022-09-29T04:37:22.383Z,100280
2022-09-29T04:42:22.390Z,100290
2022-09-29T04:47:22.515Z,100290
2022-09-29T04:52:22.387Z,100290
2022-09-29T04:57:22.393Z,100300
2022-09-29T05:02:22.466Z,100300
2022-09-29T05:07:22.403Z,100290
2022-09-29T05:12:22.405Z,100290
2022-09-29T05:17:22.441Z,100300
2022-09-29T05:22:22.402Z,100300
2022-09-29T05:27:22.413Z,100310
2022-09-29T05:32:22.408Z,100310
2022-09-29T05:37:22.415Z,100320
2022-09-29T05:42:22.425Z,100330
2022-09-29T05:47:22.555Z,100340
2022-09-29T05:52:22.418Z,100340
2022-09-29T05:57:22.435Z,100350
2022-09-29T06:02:22.520Z,100350
2022-09-29T06:07:22.433Z,100350
2022-09-29T06:12:22.430Z,100360
2022-09-29T06:17:22.473Z,100360
2022-09-29T06:22:22.438Z,100360
2022-09-29T06:27:22.473Z,100360
2022-09-29T06:32:22.465Z,100370
2022-09-29T06:37:22.452Z,100370
2022-09-29T06:42:22.453Z,100380
2022-09-29T06:47:22.487Z,100380
2022-09-29T06:52:25.491Z,100380
2022-09-29T06:57:22.472Z,100380
2022-09-29T07:02:22.540Z,100380
2022-09-29T07:07:22.463Z,100390
2022-09-29T07:12:22.473Z,100390
2022-09-29T07:17:22.502Z,100390
2022-09-29T07:22:22.469Z,100390
2022-09-29T07:27:22.480Z,100400
2022-09-29T07:32:26.701Z,100410
2022-09-29T07:37:22.491Z,100410
2022-09-29T07:42:22.482Z,100420
2022-09-29T07:47:22.680Z,100420
2022-09-29T07:52:22.487Z,100420
2022-09-29T07:57:22.492Z,100430
2022-09-29T08:02:22.577Z,100430
2022-09-29T08:07:22.496Z,100440
2022-09-29T08:12:22.790Z,100450
2022-09-29T08:17:22.541Z,100450
2022-09-29T08:22:22.503Z,100450
2022-09-29T08:27:22.511Z,100460
2022-09-29T08:32:22.505Z,100460
2022-09-29T08:37:22.517Z,100470
2022-09-29T08:42:22.521Z,100470
2022-09-29T08:47:22.880Z,100470
2022-09-29T08:52:22.522Z,100470
2022-09-29T08:57:22.521Z,100480
2022-09-29T09:02:22.594Z,100480
2022-09-29T09:07:22.526Z,100500
2022-09-29T09:12:22.529Z,100500
2022-09-29T09:17:22.573Z,100500
2022-09-29T09:22:22.538Z,100500
2022-09-29T09:27:22.541Z,100500
2022-09-29T09:32:22.545Z,100500
2022-09-29T09:37:22.542Z,100510
2022-09-29T09:42:22.561Z,100500
2022-09-29T09:47:22.571Z,100500
2022-09-29T09:52:22.565Z,100510
2022-09-29T09:57:22.553Z,100510
2022-09-29T10:02:22.671Z,100510
2022-09-29T10:07:22.573Z,100510
2022-09-29T10:12:22.566Z,100500
2022-09-29T10:17:22.939Z,100510
2022-09-29T10:22:22.689Z,100510
2022-09-29T10:27:22.579Z,100510
2022-09-29T10:32:22.574Z,100510
2022-09-29T10:37:22.580Z,100500
2022-09-29T10:42:22.581Z,100500
2022-09-29T10:47:22.631Z,100500
2022-09-29T10:52:22.596Z,100510
2022-09-29T10:57:22.591Z,100500
2022-09-29T11:02:22.628Z,100500
2022-09-29T11:07:22.599Z,100500
2022-09-29T11:12:22.599Z,100500
2022-09-29T11:17:23.214Z,100510
2022-09-29T11:22:22.604Z,100510
2022-09-29T11:27:22.610Z,100510
2022-09-29T11:32:22.613Z,100510
2022-09-29T11:37:22.613Z,100510
2022-09-29T11:42:22.626Z,100510
2022-09-29T11:47:22.624Z,100510
2022-09-29T11:52:22.665Z,100510
2022-09-29T11:57:22.632Z,100510
2022-09-29T12:02:22.806Z,100520
2022-09-29T12:07:22.637Z,100520
2022-09-29T12:12:24.306Z,100520
2022-09-29T12:17:22.645Z,100520
2022-09-29T12:22:22.677Z,100520
2022-09-29T12:27:22.647Z,100530
2022-09-29T12:32:22.651Z,100520
2022-09-29T12:37:22.650Z,100520
2022-09-29T12:42:22.656Z,100530
2022-09-29T12:47:22.660Z,100530
2022-09-29T12:52:22.698Z,100530
2022-09-29T12:57:22.671Z,100530
2022-09-29T13:02:22.695Z,100530
2022-09-29T13:07:22.668Z,100530
2022-09-29T13:12:22.674Z,100530
2022-09-29T13:17:22.682Z,100530
2022-09-29T13:22:22.705Z,100530
2022-09-29T13:27:22.678Z,100530
2022-09-29T13:32:22.683Z,100540
2022-09-29T13:37:22.692Z,100540
2022-09-29T13:42:22.700Z,100540
2022-09-29T13:47:22.697Z,100550
2022-09-29T13:52:22.727Z,100550
2022-09-29T13:57:26.957Z,100550
2022-09-29T14:02:22.724Z,100550
2022-09-29T14:07:22.708Z,100560
2022-09-29T14:12:22.718Z,100560
2022-09-29T14:17:22.710Z,100560
2022-09-29T14:22:23.441Z,100570
2022-09-29T14:27:22.720Z,100560
2022-09-29T14:32:22.730Z,100570
2022-09-29T14:37:22.731Z,100570
2022-09-29T14:42:22.724Z,100580
2022-09-29T14:47:22.807Z,100590
2022-09-29T14:52:22.737Z,100600
2022-09-29T14:57:22.775Z,100600
2022-09-29T15:02:22.855Z,100600
2022-09-29T15:07:22.747Z,100610
2022-09-29T15:12:22.768Z,100610
2022-09-29T15:17:22.751Z,100620
2022-09-29T15:22:22.754Z,100620
2022-09-29T15:27:22.789Z,100630
2022-09-29T15:32:22.758Z,100630
2022-09-29T15:37:22.810Z,100630
2022-09-29T15:42:22.763Z,100630
2022-09-29T15:47:22.764Z,100640
2022-09-29T15:52:22.773Z,100640
2022-09-29T15:57:23.421Z,100640
2022-09-29T16:02:22.821Z,100640
2022-09-29T16:07:22.779Z,100650
2022-09-29T16:12:22.778Z,100660
2022-09-29T16:17:22.784Z,100660
2022-09-29T16:22:22.787Z,100680
2022-09-29T16:27:22.790Z,100680
2022-09-29T16:32:22.838Z,100680
2022-09-29T16:37:22.796Z,100690
2022-09-29T16:42:22.803Z,100690
2022-09-29T16:47:22.801Z,100700
2022-09-29T16:52:22.811Z,100710
2022-09-29T16:57:22.808Z,100710
2022-09-29T17:02:22.925Z,100710
2022-09-29T17:07:22.817Z,100710
2022-09-29T17:12:22.815Z,100720
2022-09-29T17:17:22.832Z,100720
2022-09-29T17:22:22.820Z,100730
2022-09-29T17:27:22.824Z,100730
2022-09-29T17:32:22.870Z,100740
2022-09-29T17:37:22.832Z,100750
2022-09-29T17:42:22.836Z,100750
2022-09-29T17:47:28.496Z,100760
2022-09-29T17:52:22.840Z,100760
2022-09-29T17:57:22.850Z,100770
2022-09-29T18:02:22.924Z,100770
2022-09-29T18:07:22.859Z,100780
2022-09-29T18:12:22.854Z,100780
2022-09-29T18:17:22.851Z,100780
2022-09-29T18:22:22.859Z,100790
2022-09-29T18:27:22.860Z,100790
2022-09-29T18:32:22.884Z,100800
2022-09-29T18:37:22.864Z,100800
2022-09-29T18:42:22.873Z,100810
2022-09-29T18:47:22.873Z,100810
2022-09-29T18:52:22.877Z,100820
2022-09-29T18:57:22.876Z,100830
2022-09-29T19:02:23.032Z,100830
2022-09-29T19:07:22.891Z,100830
2022-09-29T19:12:22.883Z,100840
2022-09-29T19:17:22.891Z,100840
2022-09-29T19:22:22.892Z,100850
2022-09-29T19:27:22.893Z,100860
2022-09-29T19:32:22.934Z,100860
2022-09-29T19:37:22.914Z,100860
2022-09-29T19:42:22.906Z,100880
2022-09-29T19:47:22.913Z,100870
2022-09-29T19:52:22.907Z,100880
2022-09-29T19:57:22.930Z,100890
2022-09-29T20:02:22.996Z,100890
2022-09-29T20:07:22.913Z,100900
2022-09-29T20:12:22.920Z,100910
2022-09-29T20:17:22.922Z,100920
2022-09-29T20:22:22.926Z,100920
2022-09-29T20:27:22.926Z,100930
2022-09-29T20:32:22.958Z,100930
2022-09-29T20:37:22.935Z,100940
2022-09-29T20:42:22.943Z,100930
2022-09-29T20:47:22.941Z,100940
2022-09-29T20:52:22.940Z,100950
2022-09-29T20:57:22.946Z,100950
2022-09-29T21:02:23.503Z,100950
2022-09-29T21:07:22.965Z,100950
2022-09-29T21:12:22.955Z,100960
2022-09-29T21:17:22.955Z,100970
2022-09-29T21:22:27.260Z,100970
2022-09-29T21:27:22.964Z,100980
2022-09-29T21:32:22.964Z,100990
2022-09-29T21:37:23.099Z,100990
2022-09-29T21:42:22.978Z,101000
2022-09-29T21:47:22.979Z,101000
2022-09-29T21:52:22.975Z,101000
2022-09-29T21:57:22.977Z,101000
2022-09-29T22:02:23.211Z,101000
2022-09-29T22:07:22.992Z,101000
2022-09-29T22:12:23.007Z,101000
2022-09-29T22:17:22.996Z,101010
2022-09-29T22:22:22.991Z,101000
2022-09-29T22:27:22.997Z,101000
2022-09-29T22:32:23.001Z,101010
2022-09-29T22:37:25.574Z,101010
2022-09-29T22:42:23.036Z,101010
2022-09-29T22:47:23.009Z,101020
2022-09-29T22:52:23.008Z,101030
2022-09-29T22:57:23.013Z,101020
2022-09-29T23:02:23.019Z,101020
2022-09-29T23:07:23.019Z,101020
2022-09-29T23:12:23.053Z,101020
2022-09-29T23:17:23.026Z,101020
2022-09-29T23:22:23.026Z,101030
2022-09-29T23:27:23.033Z,101040
2022-09-29T23:32:23.049Z,101030
2022-09-29T23:37:23.038Z,101030
2022-09-29T23:42:23.069Z,101040
2022-09-29T23:47:23.045Z,101040
2022-09-29T23:52:23.046Z,101040
2022-09-29T23:57:23.052Z,101040
